Terminal Aerodrome Forecast
Issued by NWS

Home | Current Version | Previous Version | Text Only | Print | Product List | Glossary Off
Versions: 1 2 3 4 5 6 7 8 9 10 11 12 13 14 15 16 17

000
FTUS43 KABR 210533
TAFMBG
TAF
KMBG 210533Z 2106/2206 12011KT P6SM BKN250
     FM211100 14013G23KT P6SM SCT200
     FM211600 21009KT P6SM SCT250
     FM211800 30013G22KT P6SM SCT250
     FM220200 35009KT P6SM SCT250=

USA.gov is the U.S. government's official web portal to all federal, state and local government web resources and services.